Terminal Aerodrome Forecast
Issued by NWS Topeka, KS

Home | Current Version | Previous Version | Graphics & Text | Print | Product List | Glossary On
Versions: 1 2 3 4 5 6 7 8 9 10 11 12 13 14 15
788
FTUS43 KTOP 251739
TAFTOP
TAF
KTOP 251739Z 2518/2618 22006KT P6SM SCT150
     FM252300 26008KT P6SM VCTS OVC050CB
     FM260200 33010KT P6SM VCTS OVC045CB
     FM260400 34011G20KT P6SM VCTS OVC030CB
     FM260500 34013KT P6SM VCSH OVC030
     FM261000 33014KT P6SM VCSH OVC015
     FM261200 33015G23KT P6SM OVC020=

USA.gov is the U.S. government's official web portal to all federal, state and local government web resources and services.